Aeroporto :







RITROVATECI SU...

 
LOGIN :

Iscrizione | Disclaimer

   EN    FR    IT 

 









Sommario :    VFR   VFR Marginale   IFR   IFR Intensivo   IFR Molto Intensivo
Visibilità : 
Base nubi : 
>= 8 km
>= 3000ft
5 / 8 km
1000 / 3000 ft
1500m / 5 km
500 / 1000 ft
800 / 1500m
200 / 500 ft
< 800m
< 200 ft
Simboli :   Temporali  Nebbia  Neve Forte  Precipitazioni Forti  Vento > 20 kt







- Altitudine del aeroporto : 792 ft
- Codice IATA : YSC


CYSC - Sherbrooke

ULTIMO METAR :
  • 170000Z AUTO 00000KT 9SM CLR 09/09 A3005 RMK SLP182

METARs OBSOLETI :
  • 162300Z AUTO 00000KT 9SM CLR 12/10 A3004 RMK SLP178
  • 162200Z AUTO 31003KT 9SM FEW250 15/10 A3003 RMK SLP175 DENSITY ALT 800FT

TAF TAF CYSC
Valido dal 17 a 00 ore il 17 a 03 ore UTC


162338Z 1700/1703 31005KT P6SM SKC RMK FCST BASED ON AUTO OBS. NXT FCST WILL BE ISSUED AT 171045Z
Nessun NOTAM noto per questo aeroporto.



MetMap, La meteo Aeronautica in un colpo d'occhio ! - Copyright ORBIFLY Dicembre 2007 - Disclaimer

ORBIFLY MET'MAP TEAM :

Programmazione e sviluppo : Alexandra Zaïnal
Concezione e sviluppo : Baudouin d'Aumeries
Co-Programmazione e sviluppo : Marc-Olivier Méhu
Supporto tecnico e logistico : Manuel Goepfert
Aiuto per la traduzione : Arnaldo La Scala

Contatto : metmap@orbifly.com




FONTI E CREDITI :

   NOAA